sensor_id;sensor_type;location;lat;lon;timestamp;P1;durP1;ratioP1;P2;durP2;ratioP2
37241;SDS011;23135;51.078;12.108;2023-02-08T00:01:35;73.20;;;26.60;;
37241;SDS011;23135;51.078;12.108;2023-02-08T00:04:00;80.75;;;26.20;;
37241;SDS011;23135;51.078;12.108;2023-02-08T00:06:26;96.82;;;29.27;;
37241;SDS011;23135;51.078;12.108;2023-02-08T00:08:51;82.60;;;25.75;;
37241;SDS011;23135;51.078;12.108;2023-02-08T00:11:17;77.85;;;27.95;;
37241;SDS011;23135;51.078;12.108;2023-02-08T00:13:43;78.05;;;27.73;;
37241;SDS011;23135;51.078;12.108;2023-02-08T00:16:09;76.90;;;25.48;;
37241;SDS011;23135;51.078;12.108;2023-02-08T00:18:36;71.70;;;24.10;;
37241;SDS011;23135;51.078;12.108;2023-02-08T00:21:05;74.25;;;26.00;;
37241;SDS011;23135;51.078;12.108;2023-02-08T00:23:32;70.25;;;25.25;;
37241;SDS011;23135;51.078;12.108;2023-02-08T00:25:57;67.30;;;21.73;;
37241;SDS011;23135;51.078;12.108;2023-02-08T00:28:23;72.70;;;24.58;;
37241;SDS011;23135;51.078;12.108;2023-02-08T00:30:49;71.18;;;24.48;;
37241;SDS011;23135;51.078;12.108;2023-02-08T00:33:14;69.70;;;24.17;;
37241;SDS011;23135;51.078;12.108;2023-02-08T00:35:40;63.17;;;22.63;;
37241;SDS011;23135;51.078;12.108;2023-02-08T00:38:06;70.72;;;23.77;;
37241;SDS011;23135;51.078;12.108;2023-02-08T00:40:31;76.63;;;24.13;;
37241;SDS011;23135;51.078;12.108;2023-02-08T00:42:57;66.00;;;22.73;;
37241;SDS011;23135;51.078;12.108;2023-02-08T00:45:22;60.55;;;19.80;;
37241;SDS011;23135;51.078;12.108;2023-02-08T00:47:48;60.17;;;21.35;;
37241;SDS011;23135;51.078;12.108;2023-02-08T00:50:14;65.63;;;23.83;;
37241;SDS011;23135;51.078;12.108;2023-02-08T00:52:39;63.65;;;21.77;;
37241;SDS011;23135;51.078;12.108;2023-02-08T00:55:05;68.90;;;23.35;;
37241;SDS011;23135;51.078;12.108;2023-02-08T00:57:32;55.35;;;20.70;;
37241;SDS011;23135;51.078;12.108;2023-02-08T00:59:58;60.45;;;21.65;;
37241;SDS011;23135;51.078;12.108;2023-02-08T01:02:23;64.20;;;23.02;;
37241;SDS011;23135;51.078;12.108;2023-02-08T01:04:49;69.22;;;25.02;;
37241;SDS011;23135;51.078;12.108;2023-02-08T01:07:15;59.58;;;21.65;;
37241;SDS011;23135;51.078;12.108;2023-02-08T01:09:41;63.97;;;23.85;;
37241;SDS011;23135;51.078;12.108;2023-02-08T01:12:06;56.25;;;20.52;;
37241;SDS011;23135;51.078;12.108;2023-02-08T01:14:32;66.88;;;22.35;;
37241;SDS011;23135;51.078;12.108;2023-02-08T01:16:58;68.00;;;21.83;;
37241;SDS011;23135;51.078;12.108;2023-02-08T01:19:23;66.32;;;21.85;;
37241;SDS011;23135;51.078;12.108;2023-02-08T01:21:49;57.92;;;21.30;;
37241;SDS011;23135;51.078;12.108;2023-02-08T01:24:15;51.20;;;21.42;;
37241;SDS011;23135;51.078;12.108;2023-02-08T01:26:41;54.58;;;21.52;;
37241;SDS011;23135;51.078;12.108;2023-02-08T01:29:06;62.22;;;22.70;;
37241;SDS011;23135;51.078;12.108;2023-02-08T01:31:33;47.53;;;20.38;;
37241;SDS011;23135;51.078;12.108;2023-02-08T01:34:01;49.90;;;17.83;;
37241;SDS011;23135;51.078;12.108;2023-02-08T01:36:28;52.50;;;20.40;;
37241;SDS011;23135;51.078;12.108;2023-02-08T01:38:55;47.22;;;16.88;;
37241;SDS011;23135;51.078;12.108;2023-02-08T01:41:22;56.25;;;19.30;;
37241;SDS011;23135;51.078;12.108;2023-02-08T01:44:06;46.90;;;17.17;;
37241;SDS011;23135;51.078;12.108;2023-02-08T01:46:39;55.10;;;19.25;;
37241;SDS011;23135;51.078;12.108;2023-02-08T01:49:07;48.80;;;18.38;;
37241;SDS011;23135;51.078;12.108;2023-02-08T01:51:42;52.15;;;18.55;;
37241;SDS011;23135;51.078;12.108;2023-02-08T01:54:12;56.20;;;17.77;;
37241;SDS011;23135;51.078;12.108;2023-02-08T01:56:40;48.85;;;17.30;;
37241;SDS011;23135;51.078;12.108;2023-02-08T01:59:11;55.67;;;20.42;;
37241;SDS011;23135;51.078;12.108;2023-02-08T02:01:39;46.90;;;17.27;;
37241;SDS011;23135;51.078;12.108;2023-02-08T02:04:07;51.15;;;18.50;;
37241;SDS011;23135;51.078;12.108;2023-02-08T02:06:33;43.50;;;15.32;;
37241;SDS011;23135;51.078;12.108;2023-02-08T02:11:50;45.92;;;16.15;;
37241;SDS011;23135;51.078;12.108;2023-02-08T02:14:18;50.42;;;17.77;;
37241;SDS011;23135;51.078;12.108;2023-02-08T02:16:44;50.65;;;18.35;;
37241;SDS011;23135;51.078;12.108;2023-02-08T02:19:13;53.70;;;18.92;;
37241;SDS011;23135;51.078;12.108;2023-02-08T02:29:55;50.58;;;17.23;;
37241;SDS011;23135;51.078;12.108;2023-02-08T02:38:02;48.45;;;16.65;;
37241;SDS011;23135;51.078;12.108;2023-02-08T02:40:53;47.10;;;17.63;;
37241;SDS011;23135;51.078;12.108;2023-02-08T02:43:38;49.10;;;17.35;;
37241;SDS011;23135;51.078;12.108;2023-02-08T02:46:17;57.90;;;19.15;;
37241;SDS011;23135;51.078;12.108;2023-02-08T02:49:04;51.40;;;18.52;;
37241;SDS011;23135;51.078;12.108;2023-02-08T02:51:39;50.38;;;16.77;;
37241;SDS011;23135;51.078;12.108;2023-02-08T02:54:26;56.55;;;18.08;;
37241;SDS011;23135;51.078;12.108;2023-02-08T02:57:00;59.08;;;18.08;;
37241;SDS011;23135;51.078;12.108;2023-02-08T02:59:31;57.90;;;19.75;;
37241;SDS011;23135;51.078;12.108;2023-02-08T03:02:01;57.03;;;20.83;;
37241;SDS011;23135;51.078;12.108;2023-02-08T03:23:07;63.75;;;23.35;;
37241;SDS011;23135;51.078;12.108;2023-02-08T03:28:22;59.13;;;20.33;;
37241;SDS011;23135;51.078;12.108;2023-02-08T03:31:07;56.75;;;19.30;;
37241;SDS011;23135;51.078;12.108;2023-02-08T03:33:51;57.75;;;20.83;;
37241;SDS011;23135;51.078;12.108;2023-02-08T03:38:58;54.88;;;19.60;;
37241;SDS011;23135;51.078;12.108;2023-02-08T03:41:31;56.40;;;18.27;;
37241;SDS011;23135;51.078;12.108;2023-02-08T03:44:01;56.22;;;18.73;;
37241;SDS011;23135;51.078;12.108;2023-02-08T03:46:32;47.05;;;18.20;;
37241;SDS011;23135;51.078;12.108;2023-02-08T03:49:05;46.60;;;18.17;;
37241;SDS011;23135;51.078;12.108;2023-02-08T03:51:50;51.80;;;17.58;;
37241;SDS011;23135;51.078;12.108;2023-02-08T03:54:19;60.72;;;20.58;;
37241;SDS011;23135;51.078;12.108;2023-02-08T03:59:35;50.33;;;17.35;;
37241;SDS011;23135;51.078;12.108;2023-02-08T04:02:05;52.42;;;17.95;;
37241;SDS011;23135;51.078;12.108;2023-02-08T04:04:36;51.38;;;18.23;;
37241;SDS011;23135;51.078;12.108;2023-02-08T04:07:06;44.10;;;16.47;;
37241;SDS011;23135;51.078;12.108;2023-02-08T04:09:31;48.65;;;18.17;;
37241;SDS011;23135;51.078;12.108;2023-02-08T04:11:57;47.53;;;19.02;;
37241;SDS011;23135;51.078;12.108;2023-02-08T04:14:22;60.38;;;19.08;;
37241;SDS011;23135;51.078;12.108;2023-02-08T04:16:48;46.63;;;17.20;;
37241;SDS011;23135;51.078;12.108;2023-02-08T04:19:14;55.28;;;18.63;;
37241;SDS011;23135;51.078;12.108;2023-02-08T04:21:39;51.22;;;17.52;;
37241;SDS011;23135;51.078;12.108;2023-02-08T04:24:05;56.55;;;17.42;;
37241;SDS011;23135;51.078;12.108;2023-02-08T04:26:31;42.13;;;16.15;;
37241;SDS011;23135;51.078;12.108;2023-02-08T04:28:56;49.15;;;17.60;;
37241;SDS011;23135;51.078;12.108;2023-02-08T04:31:22;47.03;;;16.10;;
37241;SDS011;23135;51.078;12.108;2023-02-08T04:33:48;47.83;;;17.83;;
37241;SDS011;23135;51.078;12.108;2023-02-08T04:36:13;47.83;;;16.15;;
37241;SDS011;23135;51.078;12.108;2023-02-08T04:38:39;54.47;;;18.47;;
37241;SDS011;23135;51.078;12.108;2023-02-08T04:41:04;51.08;;;16.95;;
37241;SDS011;23135;51.078;12.108;2023-02-08T04:43:30;53.25;;;16.58;;
37241;SDS011;23135;51.078;12.108;2023-02-08T04:45:55;54.45;;;18.52;;
37241;SDS011;23135;51.078;12.108;2023-02-08T04:48:21;55.40;;;18.42;;
37241;SDS011;23135;51.078;12.108;2023-02-08T04:50:47;58.33;;;21.48;;
37241;SDS011;23135;51.078;12.108;2023-02-08T04:53:12;48.65;;;16.92;;
37241;SDS011;23135;51.078;12.108;2023-02-08T04:55:38;57.55;;;20.67;;
37241;SDS011;23135;51.078;12.108;2023-02-08T04:58:03;50.00;;;18.45;;
37241;SDS011;23135;51.078;12.108;2023-02-08T05:00:29;57.47;;;19.13;;
37241;SDS011;23135;51.078;12.108;2023-02-08T05:02:55;54.00;;;17.92;;
37241;SDS011;23135;51.078;12.108;2023-02-08T05:05:23;57.97;;;18.45;;
37241;SDS011;23135;51.078;12.108;2023-02-08T05:07:49;55.55;;;19.77;;
37241;SDS011;23135;51.078;12.108;2023-02-08T05:10:15;53.80;;;19.08;;
37241;SDS011;23135;51.078;12.108;2023-02-08T05:12:40;61.42;;;18.25;;
37241;SDS011;23135;51.078;12.108;2023-02-08T05:15:06;59.38;;;18.23;;
37241;SDS011;23135;51.078;12.108;2023-02-08T05:17:32;58.28;;;19.90;;
37241;SDS011;23135;51.078;12.108;2023-02-08T05:19:58;52.30;;;17.80;;
37241;SDS011;23135;51.078;12.108;2023-02-08T05:22:23;46.53;;;19.27;;
37241;SDS011;23135;51.078;12.108;2023-02-08T05:24:49;59.72;;;19.10;;
37241;SDS011;23135;51.078;12.108;2023-02-08T05:27:14;51.05;;;18.00;;
37241;SDS011;23135;51.078;12.108;2023-02-08T05:29:40;56.08;;;18.88;;
37241;SDS011;23135;51.078;12.108;2023-02-08T05:32:06;58.72;;;19.60;;
37241;SDS011;23135;51.078;12.108;2023-02-08T05:34:32;56.03;;;19.50;;
37241;SDS011;23135;51.078;12.108;2023-02-08T05:36:58;51.47;;;19.63;;
37241;SDS011;23135;51.078;12.108;2023-02-08T05:39:23;60.65;;;18.67;;
37241;SDS011;23135;51.078;12.108;2023-02-08T05:41:49;42.67;;;17.05;;
37241;SDS011;23135;51.078;12.108;2023-02-08T05:44:14;56.13;;;19.23;;
37241;SDS011;23135;51.078;12.108;2023-02-08T05:46:40;52.73;;;17.90;;
37241;SDS011;23135;51.078;12.108;2023-02-08T05:49:05;58.97;;;18.08;;
37241;SDS011;23135;51.078;12.108;2023-02-08T05:51:32;52.80;;;19.20;;
37241;SDS011;23135;51.078;12.108;2023-02-08T05:53:57;53.08;;;20.52;;
37241;SDS011;23135;51.078;12.108;2023-02-08T05:56:23;59.65;;;21.50;;
37241;SDS011;23135;51.078;12.108;2023-02-08T05:58:48;53.95;;;19.30;;
37241;SDS011;23135;51.078;12.108;2023-02-08T06:01:14;57.90;;;16.47;;
37241;SDS011;23135;51.078;12.108;2023-02-08T06:03:39;57.73;;;20.37;;
37241;SDS011;23135;51.078;12.108;2023-02-08T06:06:06;40.08;;;16.75;;
37241;SDS011;23135;51.078;12.108;2023-02-08T06:08:34;55.22;;;18.10;;
37241;SDS011;23135;51.078;12.108;2023-02-08T06:11:00;65.75;;;19.65;;
37241;SDS011;23135;51.078;12.108;2023-02-08T06:13:25;56.60;;;17.75;;
37241;SDS011;23135;51.078;12.108;2023-02-08T06:15:53;57.47;;;19.70;;
37241;SDS011;23135;51.078;12.108;2023-02-08T06:18:19;56.40;;;18.45;;
37241;SDS011;23135;51.078;12.108;2023-02-08T06:20:44;55.60;;;18.33;;
37241;SDS011;23135;51.078;12.108;2023-02-08T06:23:10;61.63;;;18.77;;
37241;SDS011;23135;51.078;12.108;2023-02-08T06:25:35;59.70;;;19.70;;
37241;SDS011;23135;51.078;12.108;2023-02-08T06:28:01;56.27;;;17.13;;
37241;SDS011;23135;51.078;12.108;2023-02-08T06:30:27;45.38;;;17.20;;
37241;SDS011;23135;51.078;12.108;2023-02-08T06:32:53;50.83;;;19.30;;
37241;SDS011;23135;51.078;12.108;2023-02-08T06:35:18;53.10;;;16.85;;
37241;SDS011;23135;51.078;12.108;2023-02-08T06:37:44;59.17;;;16.33;;
37241;SDS011;23135;51.078;12.108;2023-02-08T06:40:10;50.97;;;19.75;;
37241;SDS011;23135;51.078;12.108;2023-02-08T06:42:35;53.97;;;19.27;;
37241;SDS011;23135;51.078;12.108;2023-02-08T06:45:01;58.87;;;20.80;;
37241;SDS011;23135;51.078;12.108;2023-02-08T06:47:27;70.38;;;21.55;;
37241;SDS011;23135;51.078;12.108;2023-02-08T06:49:53;65.17;;;20.53;;
37241;SDS011;23135;51.078;12.108;2023-02-08T06:52:19;70.63;;;20.60;;
37241;SDS011;23135;51.078;12.108;2023-02-08T06:54:46;53.03;;;17.60;;
37241;SDS011;23135;51.078;12.108;2023-02-08T06:57:11;61.53;;;20.40;;
37241;SDS011;23135;51.078;12.108;2023-02-08T06:59:37;55.65;;;18.67;;
37241;SDS011;23135;51.078;12.108;2023-02-08T07:02:04;63.63;;;21.60;;
37241;SDS011;23135;51.078;12.108;2023-02-08T07:04:29;61.40;;;19.42;;
37241;SDS011;23135;51.078;12.108;2023-02-08T07:06:55;62.07;;;21.60;;
37241;SDS011;23135;51.078;12.108;2023-02-08T07:09:21;60.20;;;21.63;;
37241;SDS011;23135;51.078;12.108;2023-02-08T07:11:46;58.70;;;20.60;;
37241;SDS011;23135;51.078;12.108;2023-02-08T07:14:12;66.07;;;20.53;;
37241;SDS011;23135;51.078;12.108;2023-02-08T07:16:39;61.63;;;23.60;;
37241;SDS011;23135;51.078;12.108;2023-02-08T07:19:05;81.18;;;25.70;;
37241;SDS011;23135;51.078;12.108;2023-02-08T07:21:31;66.22;;;21.52;;
37241;SDS011;23135;51.078;12.108;2023-02-08T07:23:56;75.72;;;26.65;;
37241;SDS011;23135;51.078;12.108;2023-02-08T07:26:22;73.60;;;27.88;;
37241;SDS011;23135;51.078;12.108;2023-02-08T07:28:48;77.78;;;26.25;;
37241;SDS011;23135;51.078;12.108;2023-02-08T07:31:14;74.50;;;24.73;;
37241;SDS011;23135;51.078;12.108;2023-02-08T07:33:40;91.07;;;27.40;;
37241;SDS011;23135;51.078;12.108;2023-02-08T07:36:07;85.30;;;31.65;;
37241;SDS011;23135;51.078;12.108;2023-02-08T07:38:34;90.05;;;32.58;;
37241;SDS011;23135;51.078;12.108;2023-02-08T07:43:32;73.85;;;25.55;;
37241;SDS011;23135;51.078;12.108;2023-02-08T07:46:04;71.38;;;26.40;;
37241;SDS011;23135;51.078;12.108;2023-02-08T07:48:31;79.28;;;27.50;;
37241;SDS011;23135;51.078;12.108;2023-02-08T07:50:56;65.43;;;26.10;;
37241;SDS011;23135;51.078;12.108;2023-02-08T07:53:22;135.02;;;42.63;;
37241;SDS011;23135;51.078;12.108;2023-02-08T07:55:47;126.82;;;40.60;;
37241;SDS011;23135;51.078;12.108;2023-02-08T07:58:13;87.43;;;30.73;;
37241;SDS011;23135;51.078;12.108;2023-02-08T08:00:39;83.32;;;29.10;;
37241;SDS011;23135;51.078;12.108;2023-02-08T08:03:04;71.15;;;25.98;;
37241;SDS011;23135;51.078;12.108;2023-02-08T08:05:30;73.75;;;24.98;;
37241;SDS011;23135;51.078;12.108;2023-02-08T08:07:56;67.88;;;26.45;;
37241;SDS011;23135;51.078;12.108;2023-02-08T08:10:21;71.85;;;24.35;;
37241;SDS011;23135;51.078;12.108;2023-02-08T08:12:47;62.83;;;25.25;;
37241;SDS011;23135;51.078;12.108;2023-02-08T08:15:12;67.90;;;25.60;;
37241;SDS011;23135;51.078;12.108;2023-02-08T08:17:38;67.05;;;26.02;;
37241;SDS011;23135;51.078;12.108;2023-02-08T08:20:07;67.60;;;26.20;;
37241;SDS011;23135;51.078;12.108;2023-02-08T08:22:33;82.53;;;28.95;;
37241;SDS011;23135;51.078;12.108;2023-02-08T08:24:59;72.93;;;28.48;;
37241;SDS011;23135;51.078;12.108;2023-02-08T08:27:24;78.90;;;26.55;;
37241;SDS011;23135;51.078;12.108;2023-02-08T08:29:50;70.07;;;26.52;;
37241;SDS011;23135;51.078;12.108;2023-02-08T08:32:16;64.13;;;25.50;;
37241;SDS011;23135;51.078;12.108;2023-02-08T08:34:42;77.25;;;26.58;;
37241;SDS011;23135;51.078;12.108;2023-02-08T08:37:07;75.40;;;28.65;;
37241;SDS011;23135;51.078;12.108;2023-02-08T08:39:33;81.68;;;26.65;;
37241;SDS011;23135;51.078;12.108;2023-02-08T08:42:01;67.53;;;27.08;;
37241;SDS011;23135;51.078;12.108;2023-02-08T08:44:28;71.78;;;27.33;;
37241;SDS011;23135;51.078;12.108;2023-02-08T08:46:55;69.20;;;25.15;;
37241;SDS011;23135;51.078;12.108;2023-02-08T08:49:22;67.57;;;26.67;;
37241;SDS011;23135;51.078;12.108;2023-02-08T08:51:47;78.82;;;26.85;;
37241;SDS011;23135;51.078;12.108;2023-02-08T08:54:13;62.08;;;24.40;;
37241;SDS011;23135;51.078;12.108;2023-02-08T08:56:39;69.78;;;25.45;;
37241;SDS011;23135;51.078;12.108;2023-02-08T08:59:04;65.40;;;24.88;;
37241;SDS011;23135;51.078;12.108;2023-02-08T09:01:30;60.85;;;26.65;;
37241;SDS011;23135;51.078;12.108;2023-02-08T09:06:23;60.45;;;26.50;;
37241;SDS011;23135;51.078;12.108;2023-02-08T09:08:49;65.97;;;26.38;;
37241;SDS011;23135;51.078;12.108;2023-02-08T09:11:14;65.47;;;26.50;;
37241;SDS011;23135;51.078;12.108;2023-02-08T09:13:40;63.03;;;26.38;;
37241;SDS011;23135;51.078;12.108;2023-02-08T09:16:11;53.25;;;24.83;;
37241;SDS011;23135;51.078;12.108;2023-02-08T09:18:38;53.27;;;19.40;;
37241;SDS011;23135;51.078;12.108;2023-02-08T09:21:12;62.80;;;27.27;;
37241;SDS011;23135;51.078;12.108;2023-02-08T09:23:45;69.90;;;28.75;;
37241;SDS011;23135;51.078;12.108;2023-02-08T09:26:14;67.95;;;29.77;;
37241;SDS011;23135;51.078;12.108;2023-02-08T09:28:41;59.50;;;26.08;;
37241;SDS011;23135;51.078;12.108;2023-02-08T09:31:08;59.92;;;25.17;;
37241;SDS011;23135;51.078;12.108;2023-02-08T09:33:43;63.65;;;27.92;;
37241;SDS011;23135;51.078;12.108;2023-02-08T09:36:08;57.42;;;25.90;;
37241;SDS011;23135;51.078;12.108;2023-02-08T09:38:35;66.10;;;27.80;;
37241;SDS011;23135;51.078;12.108;2023-02-08T09:46:15;63.35;;;26.63;;
37241;SDS011;23135;51.078;12.108;2023-02-08T09:48:43;63.17;;;26.50;;
37241;SDS011;23135;51.078;12.108;2023-02-08T09:56:44;57.70;;;24.40;;
37241;SDS011;23135;51.078;12.108;2023-02-08T09:59:16;72.47;;;31.35;;
37241;SDS011;23135;51.078;12.108;2023-02-08T10:01:52;78.28;;;31.17;;
37241;SDS011;23135;51.078;12.108;2023-02-08T10:07:29;66.50;;;30.48;;
37241;SDS011;23135;51.078;12.108;2023-02-08T10:09:56;76.78;;;32.00;;
37241;SDS011;23135;51.078;12.108;2023-02-08T10:36:54;54.43;;;24.17;;
37241;SDS011;23135;51.078;12.108;2023-02-08T10:39:25;72.43;;;32.58;;
37241;SDS011;23135;51.078;12.108;2023-02-08T10:41:53;72.13;;;34.20;;
37241;SDS011;23135;51.078;12.108;2023-02-08T10:44:22;80.13;;;35.30;;
37241;SDS011;23135;51.078;12.108;2023-02-08T10:49:37;69.50;;;31.08;;
37241;SDS011;23135;51.078;12.108;2023-02-08T10:52:05;70.22;;;31.98;;
37241;SDS011;23135;51.078;12.108;2023-02-08T10:54:32;68.75;;;30.70;;
37241;SDS011;23135;51.078;12.108;2023-02-08T10:57:02;63.33;;;30.20;;
37241;SDS011;23135;51.078;12.108;2023-02-08T11:01:59;65.72;;;29.23;;
37241;SDS011;23135;51.078;12.108;2023-02-08T11:04:25;61.53;;;28.23;;
37241;SDS011;23135;51.078;12.108;2023-02-08T11:06:50;67.18;;;28.70;;
37241;SDS011;23135;51.078;12.108;2023-02-08T11:09:22;63.85;;;28.98;;
37241;SDS011;23135;51.078;12.108;2023-02-08T11:11:50;56.05;;;27.08;;
37241;SDS011;23135;51.078;12.108;2023-02-08T11:14:26;65.22;;;27.92;;
37241;SDS011;23135;51.078;12.108;2023-02-08T11:16:56;57.60;;;27.83;;
37241;SDS011;23135;51.078;12.108;2023-02-08T11:19:37;59.78;;;28.33;;
37241;SDS011;23135;51.078;12.108;2023-02-08T11:22:19;63.53;;;27.75;;
37241;SDS011;23135;51.078;12.108;2023-02-08T11:24:54;60.45;;;25.98;;
37241;SDS011;23135;51.078;12.108;2023-02-08T11:32:45;52.78;;;25.17;;
37241;SDS011;23135;51.078;12.108;2023-02-08T11:35:22;49.47;;;22.15;;
37241;SDS011;23135;51.078;12.108;2023-02-08T11:37:53;41.35;;;19.83;;
37241;SDS011;23135;51.078;12.108;2023-02-08T11:40:21;38.42;;;17.88;;
37241;SDS011;23135;51.078;12.108;2023-02-08T11:42:50;45.90;;;20.08;;
37241;SDS011;23135;51.078;12.108;2023-02-08T11:45:20;34.67;;;18.98;;
37241;SDS011;23135;51.078;12.108;2023-02-08T11:47:47;36.35;;;16.58;;
37241;SDS011;23135;51.078;12.108;2023-02-08T11:50:22;34.67;;;17.35;;
37241;SDS011;23135;51.078;12.108;2023-02-08T11:52:54;37.50;;;16.35;;
37241;SDS011;23135;51.078;12.108;2023-02-08T11:55:26;36.10;;;16.38;;
37241;SDS011;23135;51.078;12.108;2023-02-08T11:57:56;36.08;;;16.60;;
37241;SDS011;23135;51.078;12.108;2023-02-08T12:00:35;33.08;;;17.45;;
37241;SDS011;23135;51.078;12.108;2023-02-08T12:03:12;44.47;;;20.10;;
37241;SDS011;23135;51.078;12.108;2023-02-08T12:05:42;40.78;;;18.63;;
37241;SDS011;23135;51.078;12.108;2023-02-08T12:11:47;26.35;;;14.38;;
37241;SDS011;23135;51.078;12.108;2023-02-08T12:52:02;16.00;;;9.27;;
37241;SDS011;23135;51.078;12.108;2023-02-08T12:54:29;20.63;;;9.63;;
37241;SDS011;23135;51.078;12.108;2023-02-08T12:56:56;18.42;;;8.88;;
37241;SDS011;23135;51.078;12.108;2023-02-08T12:59:45;15.02;;;8.18;;
37241;SDS011;23135;51.078;12.108;2023-02-08T13:02:18;18.60;;;8.68;;
37241;SDS011;23135;51.078;12.108;2023-02-08T13:04:50;17.75;;;9.95;;
37241;SDS011;23135;51.078;12.108;2023-02-08T13:07:23;15.32;;;7.22;;
37241;SDS011;23135;51.078;12.108;2023-02-08T13:10:26;20.23;;;12.10;;
37241;SDS011;23135;51.078;12.108;2023-02-08T13:13:11;19.80;;;10.30;;
37241;SDS011;23135;51.078;12.108;2023-02-08T13:15:40;15.88;;;9.55;;
37241;SDS011;23135;51.078;12.108;2023-02-08T13:20:44;16.90;;;9.65;;
37241;SDS011;23135;51.078;12.108;2023-02-08T13:23:17;18.00;;;10.07;;
37241;SDS011;23135;51.078;12.108;2023-02-08T13:28:16;21.58;;;11.93;;
37241;SDS011;23135;51.078;12.108;2023-02-08T13:30:45;19.75;;;12.23;;
37241;SDS011;23135;51.078;12.108;2023-02-08T13:33:38;25.70;;;12.20;;
37241;SDS011;23135;51.078;12.108;2023-02-08T13:36:18;27.80;;;12.93;;
37241;SDS011;23135;51.078;12.108;2023-02-08T13:38:59;25.50;;;13.35;;
37241;SDS011;23135;51.078;12.108;2023-02-08T13:41:27;28.70;;;13.02;;
37241;SDS011;23135;51.078;12.108;2023-02-08T13:43:56;21.30;;;10.68;;
37241;SDS011;23135;51.078;12.108;2023-02-08T13:46:48;22.27;;;9.70;;
37241;SDS011;23135;51.078;12.108;2023-02-08T14:03:24;18.55;;;10.25;;
37241;SDS011;23135;51.078;12.108;2023-02-08T14:05:52;20.10;;;11.43;;
37241;SDS011;23135;51.078;12.108;2023-02-08T14:18:58;21.05;;;11.95;;
37241;SDS011;23135;51.078;12.108;2023-02-08T14:21:33;25.67;;;11.40;;
37241;SDS011;23135;51.078;12.108;2023-02-08T14:24:06;25.38;;;12.38;;
37241;SDS011;23135;51.078;12.108;2023-02-08T14:26:46;27.75;;;13.52;;
37241;SDS011;23135;51.078;12.108;2023-02-08T14:29:23;21.50;;;12.13;;
37241;SDS011;23135;51.078;12.108;2023-02-08T14:31:52;20.83;;;11.48;;
37241;SDS011;23135;51.078;12.108;2023-02-08T14:34:28;25.30;;;12.95;;
37241;SDS011;23135;51.078;12.108;2023-02-08T14:39:42;28.45;;;14.43;;
37241;SDS011;23135;51.078;12.108;2023-02-08T14:42:08;28.38;;;14.57;;
37241;SDS011;23135;51.078;12.108;2023-02-08T14:49:34;27.77;;;14.75;;
37241;SDS011;23135;51.078;12.108;2023-02-08T14:52:04;31.63;;;15.13;;
37241;SDS011;23135;51.078;12.108;2023-02-08T14:54:36;29.13;;;15.80;;
37241;SDS011;23135;51.078;12.108;2023-02-08T14:57:19;29.38;;;17.13;;
37241;SDS011;23135;51.078;12.108;2023-02-08T14:59:52;37.92;;;16.88;;
37241;SDS011;23135;51.078;12.108;2023-02-08T15:02:22;35.45;;;19.85;;
37241;SDS011;23135;51.078;12.108;2023-02-08T15:04:50;39.55;;;20.05;;
37241;SDS011;23135;51.078;12.108;2023-02-08T15:09:51;42.53;;;20.02;;
37241;SDS011;23135;51.078;12.108;2023-02-08T15:12:21;38.28;;;18.45;;
37241;SDS011;23135;51.078;12.108;2023-02-08T15:15:02;36.90;;;19.73;;
37241;SDS011;23135;51.078;12.108;2023-02-08T15:17:31;33.15;;;18.77;;
37241;SDS011;23135;51.078;12.108;2023-02-08T15:20:01;38.53;;;19.25;;
37241;SDS011;23135;51.078;12.108;2023-02-08T15:22:31;38.00;;;20.33;;
37241;SDS011;23135;51.078;12.108;2023-02-08T15:27:45;37.22;;;18.45;;
37241;SDS011;23135;51.078;12.108;2023-02-08T15:32:48;38.70;;;19.45;;
37241;SDS011;23135;51.078;12.108;2023-02-08T15:35:14;44.90;;;21.45;;
37241;SDS011;23135;51.078;12.108;2023-02-08T15:37:44;37.17;;;19.23;;
37241;SDS011;23135;51.078;12.108;2023-02-08T15:40:20;42.05;;;20.48;;
37241;SDS011;23135;51.078;12.108;2023-02-08T15:42:54;40.30;;;20.80;;
37241;SDS011;23135;51.078;12.108;2023-02-08T15:45:26;41.15;;;20.73;;
37241;SDS011;23135;51.078;12.108;2023-02-08T15:47:55;44.53;;;20.55;;
37241;SDS011;23135;51.078;12.108;2023-02-08T15:50:22;40.50;;;21.08;;
37241;SDS011;23135;51.078;12.108;2023-02-08T15:53:10;43.25;;;20.42;;
37241;SDS011;23135;51.078;12.108;2023-02-08T15:55:38;44.63;;;20.77;;
37241;SDS011;23135;51.078;12.108;2023-02-08T15:58:23;47.50;;;20.60;;
37241;SDS011;23135;51.078;12.108;2023-02-08T16:00:52;49.42;;;19.88;;
37241;SDS011;23135;51.078;12.108;2023-02-08T16:03:20;44.47;;;20.63;;
37241;SDS011;23135;51.078;12.108;2023-02-08T16:05:50;44.05;;;20.30;;
37241;SDS011;23135;51.078;12.108;2023-02-08T16:08:21;38.78;;;18.52;;
37241;SDS011;23135;51.078;12.108;2023-02-08T16:10:54;39.60;;;17.30;;
37241;SDS011;23135;51.078;12.108;2023-02-08T16:15:52;43.15;;;18.63;;
37241;SDS011;23135;51.078;12.108;2023-02-08T16:20:56;45.78;;;20.95;;
37241;SDS011;23135;51.078;12.108;2023-02-08T16:23:28;43.90;;;20.10;;
37241;SDS011;23135;51.078;12.108;2023-02-08T16:28:42;43.13;;;19.35;;
37241;SDS011;23135;51.078;12.108;2023-02-08T16:31:15;48.83;;;20.05;;
37241;SDS011;23135;51.078;12.108;2023-02-08T16:33:45;44.20;;;19.90;;
37241;SDS011;23135;51.078;12.108;2023-02-08T16:36:20;50.90;;;20.50;;
37241;SDS011;23135;51.078;12.108;2023-02-08T16:44:23;45.15;;;20.67;;
37241;SDS011;23135;51.078;12.108;2023-02-08T16:46:51;49.83;;;20.17;;
37241;SDS011;23135;51.078;12.108;2023-02-08T16:49:17;44.65;;;17.45;;
37241;SDS011;23135;51.078;12.108;2023-02-08T16:51:42;43.97;;;19.13;;
37241;SDS011;23135;51.078;12.108;2023-02-08T16:54:16;45.80;;;19.98;;
37241;SDS011;23135;51.078;12.108;2023-02-08T16:56:44;42.80;;;18.50;;
37241;SDS011;23135;51.078;12.108;2023-02-08T16:59:12;44.90;;;17.58;;
37241;SDS011;23135;51.078;12.108;2023-02-08T17:01:38;39.53;;;16.73;;
37241;SDS011;23135;51.078;12.108;2023-02-08T17:04:04;41.78;;;17.10;;
37241;SDS011;23135;51.078;12.108;2023-02-08T17:06:31;41.45;;;15.43;;
37241;SDS011;23135;51.078;12.108;2023-02-08T17:08:59;39.38;;;15.93;;
37241;SDS011;23135;51.078;12.108;2023-02-08T17:11:25;36.78;;;14.65;;
37241;SDS011;23135;51.078;12.108;2023-02-08T17:13:52;44.45;;;17.85;;
37241;SDS011;23135;51.078;12.108;2023-02-08T17:16:19;43.67;;;17.10;;
37241;SDS011;23135;51.078;12.108;2023-02-08T17:18:46;42.88;;;15.93;;
37241;SDS011;23135;51.078;12.108;2023-02-08T17:21:12;36.45;;;15.50;;
37241;SDS011;23135;51.078;12.108;2023-02-08T17:23:38;33.22;;;15.77;;
37241;SDS011;23135;51.078;12.108;2023-02-08T17:26:14;44.80;;;16.85;;
37241;SDS011;23135;51.078;12.108;2023-02-08T17:28:51;32.30;;;14.60;;
37241;SDS011;23135;51.078;12.108;2023-02-08T17:31:21;35.80;;;15.57;;
37241;SDS011;23135;51.078;12.108;2023-02-08T17:33:47;37.75;;;15.85;;
37241;SDS011;23135;51.078;12.108;2023-02-08T17:36:14;40.53;;;13.98;;